sensor_id;sensor_type;location;lat;lon;timestamp;temperature;humidity
23237;DHT22;11787;52.018;8.570;2022-12-29T00:05:08;9.90;99.90
23237;DHT22;11787;52.018;8.570;2022-12-29T00:07:33;9.90;99.90
23237;DHT22;11787;52.018;8.570;2022-12-29T00:09:59;9.90;99.90
23237;DHT22;11787;52.018;8.570;2022-12-29T00:12:25;9.90;99.90
23237;DHT22;11787;52.018;8.570;2022-12-29T00:15:10;9.90;99.90
23237;DHT22;11787;52.018;8.570;2022-12-29T00:21:19;9.90;99.90
23237;DHT22;11787;52.018;8.570;2022-12-29T00:24:04;9.90;99.90
23237;DHT22;11787;52.018;8.570;2022-12-29T00:26:57;9.90;99.90
23237;DHT22;11787;52.018;8.570;2022-12-29T00:29:41;9.90;99.90
23237;DHT22;11787;52.018;8.570;2022-12-29T00:32:25;10.00;99.90
23237;DHT22;11787;52.018;8.570;2022-12-29T00:35:14;10.00;99.90
23237;DHT22;11787;52.018;8.570;2022-12-29T00:37:42;10.00;99.90
23237;DHT22;11787;52.018;8.570;2022-12-29T00:40:27;10.00;99.90
23237;DHT22;11787;52.018;8.570;2022-12-29T00:46:41;10.00;99.90
23237;DHT22;11787;52.018;8.570;2022-12-29T00:49:09;9.90;99.90
23237;DHT22;11787;52.018;8.570;2022-12-29T00:51:55;9.90;99.90
23237;DHT22;11787;52.018;8.570;2022-12-29T00:54:21;10.00;99.90
23237;DHT22;11787;52.018;8.570;2022-12-29T00:56:48;10.00;99.90
23237;DHT22;11787;52.018;8.570;2022-12-29T00:59:14;10.00;99.90
23237;DHT22;11787;52.018;8.570;2022-12-29T01:01:40;10.00;99.90
23237;DHT22;11787;52.018;8.570;2022-12-29T01:04:06;10.00;99.90
23237;DHT22;11787;52.018;8.570;2022-12-29T01:06:32;10.10;99.90
23237;DHT22;11787;52.018;8.570;2022-12-29T01:08:58;10.00;99.90
23237;DHT22;11787;52.018;8.570;2022-12-29T01:11:42;10.00;99.90
23237;DHT22;11787;52.018;8.570;2022-12-29T01:14:08;10.00;99.90
23237;DHT22;11787;52.018;8.570;2022-12-29T01:16:33;10.00;99.90
23237;DHT22;11787;52.018;8.570;2022-12-29T01:18:59;10.00;99.90
23237;DHT22;11787;52.018;8.570;2022-12-29T01:21:25;10.00;99.90
23237;DHT22;11787;52.018;8.570;2022-12-29T01:23:51;10.00;99.90
23237;DHT22;11787;52.018;8.570;2022-12-29T01:26:17;10.00;99.90
23237;DHT22;11787;52.018;8.570;2022-12-29T01:28:44;10.00;99.90
23237;DHT22;11787;52.018;8.570;2022-12-29T01:31:11;10.10;99.90
23237;DHT22;11787;52.018;8.570;2022-12-29T01:33:37;10.10;99.90
23237;DHT22;11787;52.018;8.570;2022-12-29T01:36:08;10.10;99.90
23237;DHT22;11787;52.018;8.570;2022-12-29T01:38:35;10.20;99.90
23237;DHT22;11787;52.018;8.570;2022-12-29T01:41:02;10.20;99.90
23237;DHT22;11787;52.018;8.570;2022-12-29T01:43:49;10.20;99.90
23237;DHT22;11787;52.018;8.570;2022-12-29T01:46:34;10.20;99.90
23237;DHT22;11787;52.018;8.570;2022-12-29T01:52:24;10.20;99.90
23237;DHT22;11787;52.018;8.570;2022-12-29T01:54:53;10.20;99.90
23237;DHT22;11787;52.018;8.570;2022-12-29T01:57:25;10.20;99.90
23237;DHT22;11787;52.018;8.570;2022-12-29T02:00:00;10.20;99.90
23237;DHT22;11787;52.018;8.570;2022-12-29T02:02:27;10.20;99.90
23237;DHT22;11787;52.018;8.570;2022-12-29T02:04:55;10.20;99.90
23237;DHT22;11787;52.018;8.570;2022-12-29T02:07:24;10.30;99.90
23237;DHT22;11787;52.018;8.570;2022-12-29T02:09:53;10.30;99.90
23237;DHT22;11787;52.018;8.570;2022-12-29T02:12:21;10.20;99.90
23237;DHT22;11787;52.018;8.570;2022-12-29T02:14:49;10.20;99.90
23237;DHT22;11787;52.018;8.570;2022-12-29T02:17:33;10.20;99.90
23237;DHT22;11787;52.018;8.570;2022-12-29T02:28:55;10.10;99.90
23237;DHT22;11787;52.018;8.570;2022-12-29T02:31:34;10.00;99.90
23237;DHT22;11787;52.018;8.570;2022-12-29T02:34:22;10.10;99.90
23237;DHT22;11787;52.018;8.570;2022-12-29T02:48:10;10.20;99.90
23237;DHT22;11787;52.018;8.570;2022-12-29T02:50:51;10.10;99.90
23237;DHT22;11787;52.018;8.570;2022-12-29T02:53:19;10.20;99.90
23237;DHT22;11787;52.018;8.570;2022-12-29T02:56:06;10.20;99.90
23237;DHT22;11787;52.018;8.570;2022-12-29T02:58:32;10.20;99.90
23237;DHT22;11787;52.018;8.570;2022-12-29T03:01:03;10.30;99.90
23237;DHT22;11787;52.018;8.570;2022-12-29T03:09:14;10.40;99.90
23237;DHT22;11787;52.018;8.570;2022-12-29T03:11:52;10.40;99.90
23237;DHT22;11787;52.018;8.570;2022-12-29T03:17:59;10.50;99.90
23237;DHT22;11787;52.018;8.570;2022-12-29T03:20:38;10.60;99.90
23237;DHT22;11787;52.018;8.570;2022-12-29T03:23:05;10.50;99.90
23237;DHT22;11787;52.018;8.570;2022-12-29T03:25:47;10.60;99.90
23237;DHT22;11787;52.018;8.570;2022-12-29T03:28:25;10.60;99.90
23237;DHT22;11787;52.018;8.570;2022-12-29T03:34:14;10.60;99.90
23237;DHT22;11787;52.018;8.570;2022-12-29T03:36:50;10.60;99.90
23237;DHT22;11787;52.018;8.570;2022-12-29T03:39:20;10.70;99.90
23237;DHT22;11787;52.018;8.570;2022-12-29T03:41:50;10.70;99.90
23237;DHT22;11787;52.018;8.570;2022-12-29T03:44:16;10.70;99.90
23237;DHT22;11787;52.018;8.570;2022-12-29T03:46:41;10.70;99.90
23237;DHT22;11787;52.018;8.570;2022-12-29T03:49:07;10.70;99.90
23237;DHT22;11787;52.018;8.570;2022-12-29T03:51:33;10.70;99.90
23237;DHT22;11787;52.018;8.570;2022-12-29T03:53:58;10.70;99.90
23237;DHT22;11787;52.018;8.570;2022-12-29T03:56:24;10.70;99.90
23237;DHT22;11787;52.018;8.570;2022-12-29T03:58:50;10.70;99.90
23237;DHT22;11787;52.018;8.570;2022-12-29T04:01:15;10.80;99.90
23237;DHT22;11787;52.018;8.570;2022-12-29T04:03:41;10.80;99.90
23237;DHT22;11787;52.018;8.570;2022-12-29T04:06:06;10.80;99.90
23237;DHT22;11787;52.018;8.570;2022-12-29T04:08:32;10.80;99.90
23237;DHT22;11787;52.018;8.570;2022-12-29T04:10:58;10.80;99.90
23237;DHT22;11787;52.018;8.570;2022-12-29T04:13:24;10.80;99.90
23237;DHT22;11787;52.018;8.570;2022-12-29T04:19:11;10.80;99.90
23237;DHT22;11787;52.018;8.570;2022-12-29T04:21:37;10.80;99.90
23237;DHT22;11787;52.018;8.570;2022-12-29T04:24:02;10.90;99.90
23237;DHT22;11787;52.018;8.570;2022-12-29T04:26:32;10.90;99.90
23237;DHT22;11787;52.018;8.570;2022-12-29T04:28:57;10.90;99.90
23237;DHT22;11787;52.018;8.570;2022-12-29T04:31:23;10.90;99.90
23237;DHT22;11787;52.018;8.570;2022-12-29T04:33:48;10.90;99.90
23237;DHT22;11787;52.018;8.570;2022-12-29T04:36:14;10.90;99.90
23237;DHT22;11787;52.018;8.570;2022-12-29T04:38:39;10.80;99.90
23237;DHT22;11787;52.018;8.570;2022-12-29T04:41:05;10.80;99.90
23237;DHT22;11787;52.018;8.570;2022-12-29T04:43:31;10.80;99.90
23237;DHT22;11787;52.018;8.570;2022-12-29T04:45:56;10.80;99.90
23237;DHT22;11787;52.018;8.570;2022-12-29T04:48:22;10.80;99.90
23237;DHT22;11787;52.018;8.570;2022-12-29T04:50:48;10.80;99.90
23237;DHT22;11787;52.018;8.570;2022-12-29T04:53:15;10.80;99.90
23237;DHT22;11787;52.018;8.570;2022-12-29T04:55:41;10.80;99.90
23237;DHT22;11787;52.018;8.570;2022-12-29T04:58:06;10.70;99.90
23237;DHT22;11787;52.018;8.570;2022-12-29T05:00:32;10.70;99.90
23237;DHT22;11787;52.018;8.570;2022-12-29T05:02:58;10.70;99.90
23237;DHT22;11787;52.018;8.570;2022-12-29T05:05:24;10.70;99.90
23237;DHT22;11787;52.018;8.570;2022-12-29T05:07:50;10.70;99.90
23237;DHT22;11787;52.018;8.570;2022-12-29T05:10:16;10.60;99.90
23237;DHT22;11787;52.018;8.570;2022-12-29T05:12:42;10.60;99.90
23237;DHT22;11787;52.018;8.570;2022-12-29T05:15:09;10.60;99.90
23237;DHT22;11787;52.018;8.570;2022-12-29T05:17:35;10.60;99.90
23237;DHT22;11787;52.018;8.570;2022-12-29T05:20:00;10.60;99.90
23237;DHT22;11787;52.018;8.570;2022-12-29T05:22:26;10.60;99.90
23237;DHT22;11787;52.018;8.570;2022-12-29T05:24:51;10.70;99.90
23237;DHT22;11787;52.018;8.570;2022-12-29T05:27:17;10.60;99.90
23237;DHT22;11787;52.018;8.570;2022-12-29T05:33:04;10.60;99.90
23237;DHT22;11787;52.018;8.570;2022-12-29T05:35:32;10.60;99.90
23237;DHT22;11787;52.018;8.570;2022-12-29T05:37:57;10.60;99.90
23237;DHT22;11787;52.018;8.570;2022-12-29T05:40:23;10.60;99.90
23237;DHT22;11787;52.018;8.570;2022-12-29T05:42:49;10.70;99.90
23237;DHT22;11787;52.018;8.570;2022-12-29T05:45:14;10.70;99.90
23237;DHT22;11787;52.018;8.570;2022-12-29T05:47:40;10.70;99.90
23237;DHT22;11787;52.018;8.570;2022-12-29T05:50:06;10.80;99.90
23237;DHT22;11787;52.018;8.570;2022-12-29T05:52:31;10.80;99.90
23237;DHT22;11787;52.018;8.570;2022-12-29T05:54:57;10.80;99.90
23237;DHT22;11787;52.018;8.570;2022-12-29T05:57:23;10.90;99.90
23237;DHT22;11787;52.018;8.570;2022-12-29T05:59:48;10.90;99.90
23237;DHT22;11787;52.018;8.570;2022-12-29T06:02:14;10.90;99.90
23237;DHT22;11787;52.018;8.570;2022-12-29T06:04:39;10.90;99.90
23237;DHT22;11787;52.018;8.570;2022-12-29T06:07:05;10.90;99.90
23237;DHT22;11787;52.018;8.570;2022-12-29T06:09:30;10.90;99.90
23237;DHT22;11787;52.018;8.570;2022-12-29T06:11:56;11.00;99.90
23237;DHT22;11787;52.018;8.570;2022-12-29T06:14:21;11.00;99.90
23237;DHT22;11787;52.018;8.570;2022-12-29T06:16:47;11.00;99.90
23237;DHT22;11787;52.018;8.570;2022-12-29T06:19:13;11.00;99.90
23237;DHT22;11787;52.018;8.570;2022-12-29T06:21:38;11.00;99.90
23237;DHT22;11787;52.018;8.570;2022-12-29T06:24:04;11.00;99.90
23237;DHT22;11787;52.018;8.570;2022-12-29T06:26:30;11.10;99.90
23237;DHT22;11787;52.018;8.570;2022-12-29T06:28:56;11.10;99.90
23237;DHT22;11787;52.018;8.570;2022-12-29T06:31:21;11.10;99.90
23237;DHT22;11787;52.018;8.570;2022-12-29T06:33:47;11.10;99.90
23237;DHT22;11787;52.018;8.570;2022-12-29T06:36:13;11.10;99.90
23237;DHT22;11787;52.018;8.570;2022-12-29T06:38:38;10.90;99.90
23237;DHT22;11787;52.018;8.570;2022-12-29T06:41:04;10.40;99.90
23237;DHT22;11787;52.018;8.570;2022-12-29T06:43:29;10.20;99.90
23237;DHT22;11787;52.018;8.570;2022-12-29T06:45:56;10.00;99.90
23237;DHT22;11787;52.018;8.570;2022-12-29T06:48:21;9.90;99.90
23237;DHT22;11787;52.018;8.570;2022-12-29T06:50:47;9.80;99.90
23237;DHT22;11787;52.018;8.570;2022-12-29T06:53:12;9.80;99.90
23237;DHT22;11787;52.018;8.570;2022-12-29T06:55:38;9.70;99.90
23237;DHT22;11787;52.018;8.570;2022-12-29T06:58:04;9.70;99.90
23237;DHT22;11787;52.018;8.570;2022-12-29T07:00:29;9.70;99.90
23237;DHT22;11787;52.018;8.570;2022-12-29T07:02:56;9.60;99.90
23237;DHT22;11787;52.018;8.570;2022-12-29T07:05:23;9.60;99.90
23237;DHT22;11787;52.018;8.570;2022-12-29T07:07:50;9.70;99.90
23237;DHT22;11787;52.018;8.570;2022-12-29T07:10:15;9.60;99.90
23237;DHT22;11787;52.018;8.570;2022-12-29T07:12:41;9.60;99.90
23237;DHT22;11787;52.018;8.570;2022-12-29T07:15:07;9.60;99.90
23237;DHT22;11787;52.018;8.570;2022-12-29T07:17:33;9.60;99.90
23237;DHT22;11787;52.018;8.570;2022-12-29T07:19:58;9.60;99.90
23237;DHT22;11787;52.018;8.570;2022-12-29T07:22:24;9.70;99.90
23237;DHT22;11787;52.018;8.570;2022-12-29T07:24:49;9.70;99.90
23237;DHT22;11787;52.018;8.570;2022-12-29T07:27:15;9.70;99.90
23237;DHT22;11787;52.018;8.570;2022-12-29T07:29:40;9.70;99.90
23237;DHT22;11787;52.018;8.570;2022-12-29T07:35:28;9.80;99.90
23237;DHT22;11787;52.018;8.570;2022-12-29T07:37:54;9.80;99.90
23237;DHT22;11787;52.018;8.570;2022-12-29T07:40:19;9.90;99.90
23237;DHT22;11787;52.018;8.570;2022-12-29T07:42:45;9.80;99.90
23237;DHT22;11787;52.018;8.570;2022-12-29T07:45:10;9.90;99.90
23237;DHT22;11787;52.018;8.570;2022-12-29T07:47:36;9.90;99.90
23237;DHT22;11787;52.018;8.570;2022-12-29T07:50:01;9.90;99.90
23237;DHT22;11787;52.018;8.570;2022-12-29T07:52:27;10.00;99.90
23237;DHT22;11787;52.018;8.570;2022-12-29T07:54:53;10.10;99.90
23237;DHT22;11787;52.018;8.570;2022-12-29T07:57:18;10.00;99.90
23237;DHT22;11787;52.018;8.570;2022-12-29T07:59:44;10.10;99.90
23237;DHT22;11787;52.018;8.570;2022-12-29T08:02:10;10.00;99.90
23237;DHT22;11787;52.018;8.570;2022-12-29T08:04:36;10.00;99.90
23237;DHT22;11787;52.018;8.570;2022-12-29T08:07:02;10.10;99.90
23237;DHT22;11787;52.018;8.570;2022-12-29T08:09:28;10.10;99.90
23237;DHT22;11787;52.018;8.570;2022-12-29T08:11:54;10.00;99.90
23237;DHT22;11787;52.018;8.570;2022-12-29T08:14:19;10.00;99.90
23237;DHT22;11787;52.018;8.570;2022-12-29T08:16:45;10.00;99.90
23237;DHT22;11787;52.018;8.570;2022-12-29T08:19:11;10.10;99.90
23237;DHT22;11787;52.018;8.570;2022-12-29T08:21:37;10.10;99.90
23237;DHT22;11787;52.018;8.570;2022-12-29T08:27:25;10.10;99.90
23237;DHT22;11787;52.018;8.570;2022-12-29T08:29:51;10.10;99.90
23237;DHT22;11787;52.018;8.570;2022-12-29T08:35:38;10.20;99.90
23237;DHT22;11787;52.018;8.570;2022-12-29T08:38:04;10.20;99.90
23237;DHT22;11787;52.018;8.570;2022-12-29T08:40:29;10.20;99.90
23237;DHT22;11787;52.018;8.570;2022-12-29T08:42:55;10.20;99.90
23237;DHT22;11787;52.018;8.570;2022-12-29T08:45:20;10.20;99.90
23237;DHT22;11787;52.018;8.570;2022-12-29T08:47:46;10.20;99.90
23237;DHT22;11787;52.018;8.570;2022-12-29T08:53:46;10.20;99.90
23237;DHT22;11787;52.018;8.570;2022-12-29T08:56:11;10.10;99.90
23237;DHT22;11787;52.018;8.570;2022-12-29T08:58:37;10.00;99.90
23237;DHT22;11787;52.018;8.570;2022-12-29T09:01:03;10.00;99.90
23237;DHT22;11787;52.018;8.570;2022-12-29T09:03:29;10.00;99.90
23237;DHT22;11787;52.018;8.570;2022-12-29T09:05:55;10.00;99.90
23237;DHT22;11787;52.018;8.570;2022-12-29T09:08:21;9.90;99.90
23237;DHT22;11787;52.018;8.570;2022-12-29T09:10:47;9.90;99.90
23237;DHT22;11787;52.018;8.570;2022-12-29T09:13:14;9.80;99.90
23237;DHT22;11787;52.018;8.570;2022-12-29T09:15:39;9.70;99.90
23237;DHT22;11787;52.018;8.570;2022-12-29T09:18:07;9.80;99.90
23237;DHT22;11787;52.018;8.570;2022-12-29T09:20:33;9.70;99.90
23237;DHT22;11787;52.018;8.570;2022-12-29T09:22:59;9.70;99.90
23237;DHT22;11787;52.018;8.570;2022-12-29T09:25:25;9.70;99.90
23237;DHT22;11787;52.018;8.570;2022-12-29T09:27:51;9.70;99.90
23237;DHT22;11787;52.018;8.570;2022-12-29T09:30:21;9.70;99.90
23237;DHT22;11787;52.018;8.570;2022-12-29T09:32:48;9.80;99.90
23237;DHT22;11787;52.018;8.570;2022-12-29T09:35:14;9.80;99.90
23237;DHT22;11787;52.018;8.570;2022-12-29T09:37:42;9.80;99.90
23237;DHT22;11787;52.018;8.570;2022-12-29T09:40:36;9.90;99.90
23237;DHT22;11787;52.018;8.570;2022-12-29T09:48:36;10.00;99.90
23237;DHT22;11787;52.018;8.570;2022-12-29T09:51:08;10.00;99.90
23237;DHT22;11787;52.018;8.570;2022-12-29T09:53:42;10.00;99.90
23237;DHT22;11787;52.018;8.570;2022-12-29T09:56:14;10.00;99.90
23237;DHT22;11787;52.018;8.570;2022-12-29T09:58:45;10.00;99.90
23237;DHT22;11787;52.018;8.570;2022-12-29T10:01:48;10.10;99.90
23237;DHT22;11787;52.018;8.570;2022-12-29T10:04:17;10.10;99.90
23237;DHT22;11787;52.018;8.570;2022-12-29T10:09:38;10.00;99.90
23237;DHT22;11787;52.018;8.570;2022-12-29T10:23:42;10.20;99.90
23237;DHT22;11787;52.018;8.570;2022-12-29T10:26:15;10.20;99.90
23237;DHT22;11787;52.018;8.570;2022-12-29T10:28:58;10.20;99.90
23237;DHT22;11787;52.018;8.570;2022-12-29T10:31:44;10.10;99.90
23237;DHT22;11787;52.018;8.570;2022-12-29T10:34:21;10.10;99.90
23237;DHT22;11787;52.018;8.570;2022-12-29T10:36:49;10.10;99.90
23237;DHT22;11787;52.018;8.570;2022-12-29T10:39:40;10.20;99.90
23237;DHT22;11787;52.018;8.570;2022-12-29T10:42:18;10.20;99.90
23237;DHT22;11787;52.018;8.570;2022-12-29T10:44:46;10.40;99.90
23237;DHT22;11787;52.018;8.570;2022-12-29T10:47:18;10.40;99.90
23237;DHT22;11787;52.018;8.570;2022-12-29T10:53:06;10.50;99.90
23237;DHT22;11787;52.018;8.570;2022-12-29T10:55:35;10.50;99.90
23237;DHT22;11787;52.018;8.570;2022-12-29T10:58:04;10.60;99.90
23237;DHT22;11787;52.018;8.570;2022-12-29T11:00:30;10.60;99.90
23237;DHT22;11787;52.018;8.570;2022-12-29T11:05:57;10.70;99.90
23237;DHT22;11787;52.018;8.570;2022-12-29T11:08:30;10.60;99.90
23237;DHT22;11787;52.018;8.570;2022-12-29T11:31:53;10.50;99.90
23237;DHT22;11787;52.018;8.570;2022-12-29T11:34:37;10.40;99.90
23237;DHT22;11787;52.018;8.570;2022-12-29T11:40:18;10.40;99.90
23237;DHT22;11787;52.018;8.570;2022-12-29T11:42:31;10.40;99.90
23237;DHT22;11787;52.018;8.570;2022-12-29T11:45:09;10.40;99.90
23237;DHT22;11787;52.018;8.570;2022-12-29T11:47:43;10.50;99.90
23237;DHT22;11787;52.018;8.570;2022-12-29T11:50:20;10.50;99.90
23237;DHT22;11787;52.018;8.570;2022-12-29T11:52:48;10.50;99.90
23237;DHT22;11787;52.018;8.570;2022-12-29T11:55:22;10.50;99.90
23237;DHT22;11787;52.018;8.570;2022-12-29T11:57:51;10.50;99.90
23237;DHT22;11787;52.018;8.570;2022-12-29T12:00:22;10.50;99.90
23237;DHT22;11787;52.018;8.570;2022-12-29T12:03:17;10.50;99.90
23237;DHT22;11787;52.018;8.570;2022-12-29T12:09:23;10.60;99.90
23237;DHT22;11787;52.018;8.570;2022-12-29T12:11:52;10.60;99.90
23237;DHT22;11787;52.018;8.570;2022-12-29T12:17:04;10.60;99.90
23237;DHT22;11787;52.018;8.570;2022-12-29T12:22:19;10.60;99.90
23237;DHT22;11787;52.018;8.570;2022-12-29T12:24:49;10.60;99.90
23237;DHT22;11787;52.018;8.570;2022-12-29T12:27:21;10.60;99.90
23237;DHT22;11787;52.018;8.570;2022-12-29T12:32:45;10.60;99.90
23237;DHT22;11787;52.018;8.570;2022-12-29T12:35:19;10.60;99.90
23237;DHT22;11787;52.018;8.570;2022-12-29T12:41:00;10.60;99.90
23237;DHT22;11787;52.018;8.570;2022-12-29T12:43:40;10.60;99.90
23237;DHT22;11787;52.018;8.570;2022-12-29T12:46:23;10.60;99.90
23237;DHT22;11787;52.018;8.570;2022-12-29T12:49:07;10.70;99.90
23237;DHT22;11787;52.018;8.570;2022-12-29T13:00:12;10.60;99.90
23237;DHT22;11787;52.018;8.570;2022-12-29T13:08:34;10.70;99.90
23237;DHT22;11787;52.018;8.570;2022-12-29T13:14:09;10.80;99.90
23237;DHT22;11787;52.018;8.570;2022-12-29T13:22:12;10.60;99.90
23237;DHT22;11787;52.018;8.570;2022-12-29T13:24:54;10.60;99.90
23237;DHT22;11787;52.018;8.570;2022-12-29T13:27:44;10.60;99.90
23237;DHT22;11787;52.018;8.570;2022-12-29T13:42:20;10.60;99.90
23237;DHT22;11787;52.018;8.570;2022-12-29T13:44:51;10.60;99.90
23237;DHT22;11787;52.018;8.570;2022-12-29T13:47:37;10.50;99.90
23237;DHT22;11787;52.018;8.570;2022-12-29T13:50:12;10.50;99.90
23237;DHT22;11787;52.018;8.570;2022-12-29T13:58:31;10.40;99.90
23237;DHT22;11787;52.018;8.570;2022-12-29T14:03:49;10.40;99.90
23237;DHT22;11787;52.018;8.570;2022-12-29T14:06:27;10.50;99.90
23237;DHT22;11787;52.018;8.570;2022-12-29T14:08:59;10.40;99.90
23237;DHT22;11787;52.018;8.570;2022-12-29T14:11:38;10.40;99.90
23237;DHT22;11787;52.018;8.570;2022-12-29T14:14:13;10.40;99.90
23237;DHT22;11787;52.018;8.570;2022-12-29T14:16:39;10.40;99.90
23237;DHT22;11787;52.018;8.570;2022-12-29T14:19:17;10.40;99.90
23237;DHT22;11787;52.018;8.570;2022-12-29T14:22:02;10.40;99.90
23237;DHT22;11787;52.018;8.570;2022-12-29T14:24:49;10.40;99.90
23237;DHT22;11787;52.018;8.570;2022-12-29T14:35:44;10.30;99.90
23237;DHT22;11787;52.018;8.570;2022-12-29T14:38:25;10.30;99.90
23237;DHT22;11787;52.018;8.570;2022-12-29T14:40:52;10.10;99.90
23237;DHT22;11787;52.018;8.570;2022-12-29T14:43:24;10.00;99.90
23237;DHT22;11787;52.018;8.570;2022-12-29T14:45:57;10.00;99.90
23237;DHT22;11787;52.018;8.570;2022-12-29T14:50:49;9.90;99.90
23237;DHT22;11787;52.018;8.570;2022-12-29T14:53:44;9.90;99.90
23237;DHT22;11787;52.018;8.570;2022-12-29T14:56:13;9.80;99.90
23237;DHT22;11787;52.018;8.570;2022-12-29T14:58:57;9.80;99.90
23237;DHT22;11787;52.018;8.570;2022-12-29T15:03:59;9.90;99.90
23237;DHT22;11787;52.018;8.570;2022-12-29T15:06:29;9.90;99.90
23237;DHT22;11787;52.018;8.570;2022-12-29T15:09:10;9.90;99.90
23237;DHT22;11787;52.018;8.570;2022-12-29T15:14:33;9.90;99.90
23237;DHT22;11787;52.018;8.570;2022-12-29T15:17:00;9.90;99.90
23237;DHT22;11787;52.018;8.570;2022-12-29T15:19:27;10.00;99.90
23237;DHT22;11787;52.018;8.570;2022-12-29T15:21:54;10.00;99.90
23237;DHT22;11787;52.018;8.570;2022-12-29T15:24:20;10.00;99.90
23237;DHT22;11787;52.018;8.570;2022-12-29T15:30:12;10.00;99.90
23237;DHT22;11787;52.018;8.570;2022-12-29T15:32:42;10.00;99.90
23237;DHT22;11787;52.018;8.570;2022-12-29T15:35:33;10.00;99.90
23237;DHT22;11787;52.018;8.570;2022-12-29T15:38:00;10.00;99.90
23237;DHT22;11787;52.018;8.570;2022-12-29T15:40:32;10.00;99.90
23237;DHT22;11787;52.018;8.570;2022-12-29T15:45:38;9.90;99.90
23237;DHT22;11787;52.018;8.570;2022-12-29T15:48:05;10.00;99.90
23237;DHT22;11787;52.018;8.570;2022-12-29T15:50:35;10.00;99.90
23237;DHT22;11787;52.018;8.570;2022-12-29T15:53:02;9.90;99.90
23237;DHT22;11787;52.018;8.570;2022-12-29T15:55:32;9.90;99.90
23237;DHT22;11787;52.018;8.570;2022-12-29T15:58:00;10.00;99.90
23237;DHT22;11787;52.018;8.570;2022-12-29T16:00:34;10.00;99.90
23237;DHT22;11787;52.018;8.570;2022-12-29T16:03:04;10.00;99.90
23237;DHT22;11787;52.018;8.570;2022-12-29T16:05:38;10.00;99.90
23237;DHT22;11787;52.018;8.570;2022-12-29T16:08:41;9.90;99.90
23237;DHT22;11787;52.018;8.570;2022-12-29T16:11:23;9.90;99.90
23237;DHT22;11787;52.018;8.570;2022-12-29T16:13:51;9.90;99.90
23237;DHT22;11787;52.018;8.570;2022-12-29T16:16:31;9.90;99.90
23237;DHT22;11787;52.018;8.570;2022-12-29T16:19:03;9.90;99.90
23237;DHT22;11787;52.018;8.570;2022-12-29T16:21:34;9.90;99.90
23237;DHT22;11787;52.018;8.570;2022-12-29T16:24:05;9.90;99.90
23237;DHT22;11787;52.018;8.570;2022-12-29T16:29:55;9.90;99.90
23237;DHT22;11787;52.018;8.570;2022-12-29T16:32:28;9.90;99.90
23237;DHT22;11787;52.018;8.570;2022-12-29T16:35:22;9.80;99.90
23237;DHT22;11787;52.018;8.570;2022-12-29T16:37:49;9.80;99.90
23237;DHT22;11787;52.018;8.570;2022-12-29T16:40:31;9.80;99.90
23237;DHT22;11787;52.018;8.570;2022-12-29T16:43:00;9.80;99.90
23237;DHT22;11787;52.018;8.570;2022-12-29T16:50:39;9.80;99.90
23237;DHT22;11787;52.018;8.570;2022-12-29T16:53:05;9.80;99.90
23237;DHT22;11787;52.018;8.570;2022-12-29T16:55:32;9.80;99.90
23237;DHT22;11787;52.018;8.570;2022-12-29T16:57:58;9.80;99.90
23237;DHT22;11787;52.018;8.570;2022-12-29T17:00:25;9.80;99.90
23237;DHT22;11787;52.018;8.570;2022-12-29T17:02:52;9.80;99.90
23237;DHT22;11787;52.018;8.570;2022-12-29T17:05:19;9.90;99.90
23237;DHT22;11787;52.018;8.570;2022-12-29T17:07:45;9.90;99.90
23237;DHT22;11787;52.018;8.570;2022-12-29T17:10:11;9.80;99.90
23237;DHT22;11787;52.018;8.570;2022-12-29T17:12:38;9.80;99.90
23237;DHT22;11787;52.018;8.570;2022-12-29T17:15:07;9.80;99.90
23237;DHT22;11787;52.018;8.570;2022-12-29T17:17:41;9.80;99.90
23237;DHT22;11787;52.018;8.570;2022-12-29T17:25:44;9.80;99.90
23237;DHT22;11787;52.018;8.570;2022-12-29T17:30:41;9.80;99.90
23237;DHT22;11787;52.018;8.570;2022-12-29T17:36:10;9.70;99.90
23237;DHT22;11787;52.018;8.570;2022-12-29T17:41:38;9.20;99.90
23237;DHT22;11787;52.018;8.570;2022-12-29T17:44:04;9.30;99.90
23237;DHT22;11787;52.018;8.570;2022-12-29T17:46:30;9.30;99.90
23237;DHT22;11787;52.018;8.570;2022-12-29T17:51:59;9.20;99.90
23237;DHT22;11787;52.018;8.570;2022-12-29T17:54:24;9.30;99.90
23237;DHT22;11787;52.018;8.570;2022-12-29T17:59:53;9.30;99.90
23237;DHT22;11787;52.018;8.570;2022-12-29T18:07:53;9.40;99.90
23237;DHT22;11787;52.018;8.570;2022-12-29T18:10:22;9.40;99.90
23237;DHT22;11787;52.018;8.570;2022-12-29T18:16:11;9.60;99.90
23237;DHT22;11787;52.018;8.570;2022-12-29T18:18:36;9.50;99.90
23237;DHT22;11787;52.018;8.570;2022-12-29T18:21:02;9.50;99.90
23237;DHT22;11787;52.018;8.570;2022-12-29T18:23:29;9.40;99.90
23237;DHT22;11787;52.018;8.570;2022-12-29T18:28:24;9.30;99.90
23237;DHT22;11787;52.018;8.570;2022-12-29T18:30:50;9.20;99.90
23237;DHT22;11787;52.018;8.570;2022-12-29T18:33:17;9.10;99.90
23237;DHT22;11787;52.018;8.570;2022-12-29T18:38:17;9.10;99.90
23237;DHT22;11787;52.018;8.570;2022-12-29T18:40:42;9.00;99.90
23237;DHT22;11787;52.018;8.570;2022-12-29T18:43:11;9.00;99.90
23237;DHT22;11787;52.018;8.570;2022-12-29T18:45:37;8.90;99.90
23237;DHT22;11787;52.018;8.570;2022-12-29T18:48:03;8.90;99.90
23237;DHT22;11787;52.018;8.570;2022-12-29T18:50:28;8.80;99.90
23237;DHT22;11787;52.018;8.570;2022-12-29T18:52:54;8.80;99.90
23237;DHT22;11787;52.018;8.570;2022-12-29T18:55:22;8.80;99.90
23237;DHT22;11787;52.018;8.570;2022-12-29T18:57:49;8.70;99.90
23237;DHT22;11787;52.018;8.570;2022-12-29T19:00:16;8.70;99.90
23237;DHT22;11787;52.018;8.570;2022-12-29T19:02:43;8.60;99.90
23237;DHT22;11787;52.018;8.570;2022-12-29T19:07:49;8.50;99.90
23237;DHT22;11787;52.018;8.570;2022-12-29T19:10:15;8.40;99.90
23237;DHT22;11787;52.018;8.570;2022-12-29T19:12:42;8.40;99.90
23237;DHT22;11787;52.018;8.570;2022-12-29T19:15:24;8.30;99.90
23237;DHT22;11787;52.018;8.570;2022-12-29T19:21:12;8.20;99.90
23237;DHT22;11787;52.018;8.570;2022-12-29T19:23:38;8.20;99.90
23237;DHT22;11787;52.018;8.570;2022-12-29T19:26:04;8.20;99.90
23237;DHT22;11787;52.018;8.570;2022-12-29T19:28:30;8.20;99.90
23237;DHT22;11787;52.018;8.570;2022-12-29T19:31:01;8.20;99.90
23237;DHT22;11787;52.018;8.570;2022-12-29T19:33:27;8.20;99.90
23237;DHT22;11787;52.018;8.570;2022-12-29T19:36:00;8.10;99.90
23237;DHT22;11787;52.018;8.570;2022-12-29T19:38:26;8.10;99.90
23237;DHT22;11787;52.018;8.570;2022-12-29T19:40:52;8.10;99.90
23237;DHT22;11787;52.018;8.570;2022-12-29T19:43:18;8.00;99.90
23237;DHT22;11787;52.018;8.570;2022-12-29T19:45:44;8.00;99.90
23237;DHT22;11787;52.018;8.570;2022-12-29T19:48:15;8.00;99.90
23237;DHT22;11787;52.018;8.570;2022-12-29T19:54:03;8.00;99.90
23237;DHT22;11787;52.018;8.570;2022-12-29T19:56:28;8.00;99.90
23237;DHT22;11787;52.018;8.570;2022-12-29T19:58:55;8.00;99.90
23237;DHT22;11787;52.018;8.570;2022-12-29T20:01:22;8.00;99.90
23237;DHT22;11787;52.018;8.570;2022-12-29T20:07:09;8.00;99.90